Time;durP1;ratioP1;P1;durP2;ratioP2;P2;SDS_P1;SDS_P2;PMS_P1;PMS_P2;Temp;Humidity;BMP_temperature;BMP_pressure;BME280_temperature;BME280_humidity;BME280_pressure;Samples;Min_cycle;Max_cycle;Signal;HPM_P1;HPM_P2
2021/06/19 00:02:17;;;;;;;68.75;38.45;;;;;;;;;;5100097;28;20050;-66
2021/06/19 00:04:43;;;;;;;54.45;37.58;;;;;;;;;;5092100;28;20036;-66
2021/06/19 00:07:09;;;;;;;86.15;41.05;;;;;;;;;;5093310;28;20068;-66
2021/06/19 00:09:37;;;;;;;54.75;35.30;;;;;;;;;;5093450;28;20036;-66
2021/06/19 00:12:03;;;;;;;122.70;46.53;;;;;;;;;;5097750;28;20097;-66
2021/06/19 00:14:29;;;;;;;65.93;41.88;;;;;;;;;;5089656;28;20105;-66
2021/06/19 00:16:56;;;;;;;152.27;55.33;;;;;;;;;;5095577;28;20048;-66
2021/06/19 00:19:22;;;;;;;132.40;50.28;;;;;;;;;;5091896;28;20055;-66
2021/06/19 00:21:48;;;;;;;86.13;45.30;;;;;;;;;;5105737;28;20047;-66
2021/06/19 00:24:23;;;;;;;68.97;43.17;;;;;;;;;;5095064;28;20036;-66
2021/06/19 00:26:49;;;;;;;108.75;51.45;;;;;;;;;;5091791;28;20068;-66
2021/06/19 00:29:16;;;;;;;235.90;67.43;;;;;;;;;;5103941;28;20046;-66
2021/06/19 00:31:45;;;;;;;184.02;62.00;;;;;;;;;;5090993;28;20378;-66
2021/06/19 00:34:12;;;;;;;97.95;51.42;;;;;;;;;;5102480;28;20093;-66
2021/06/19 00:36:38;;;;;;;200.60;64.00;;;;;;;;;;5099901;28;20071;-66
2021/06/19 00:39:06;;;;;;;148.13;58.30;;;;;;;;;;5103389;28;20039;-66
2021/06/19 00:41:34;;;;;;;143.65;59.80;;;;;;;;;;5097800;28;20040;-66
2021/06/19 00:44:01;;;;;;;177.15;63.03;;;;;;;;;;5100704;28;20036;-66
2021/06/19 00:46:27;;;;;;;79.85;49.13;;;;;;;;;;5095911;28;20058;-66
2021/06/19 00:48:54;;;;;;;140.95;60.25;;;;;;;;;;5099195;28;20066;-66
2021/06/19 00:51:20;;;;;;;196.27;67.30;;;;;;;;;;5100844;28;20039;-66
2021/06/19 00:53:46;;;;;;;75.47;48.38;;;;;;;;;;5102998;28;20051;-66
2021/06/19 00:56:12;;;;;;;74.53;51.75;;;;;;;;;;5091981;28;20043;-66
2021/06/19 00:58:39;;;;;;;202.93;72.95;;;;;;;;;;5097309;28;20047;-66
2021/06/19 01:01:05;;;;;;;109.97;56.15;;;;;;;;;;5091527;28;20071;-65
2021/06/19 01:03:32;;;;;;;136.93;64.55;;;;;;;;;;5100021;28;20054;-65
2021/06/19 01:05:59;;;;;;;163.15;65.10;;;;;;;;;;5095141;28;20088;-65
2021/06/19 01:08:25;;;;;;;254.45;80.03;;;;;;;;;;5089315;28;20063;-65
2021/06/19 01:10:53;;;;;;;165.52;68.90;;;;;;;;;;5104211;28;20056;-65
2021/06/19 01:13:20;;;;;;;131.10;62.92;;;;;;;;;;5095384;28;20085;-65
2021/06/19 01:15:46;;;;;;;203.05;73.75;;;;;;;;;;5095330;28;20448;-65
2021/06/19 01:18:12;;;;;;;222.93;77.55;;;;;;;;;;5090972;28;20134;-65
2021/06/19 01:20:38;;;;;;;68.78;49.90;;;;;;;;;;5102423;28;20488;-65
2021/06/19 01:23:04;;;;;;;111.32;57.42;;;;;;;;;;5091382;28;20123;-65
2021/06/19 01:25:36;;;;;;;183.68;70.85;;;;;;;;;;5098338;28;20032;-65
2021/06/19 01:28:05;;;;;;;211.45;76.32;;;;;;;;;;5094338;28;20039;-65
2021/06/19 01:30:32;;;;;;;290.25;83.65;;;;;;;;;;5100755;28;20147;-65
2021/06/19 01:32:58;;;;;;;288.33;86.05;;;;;;;;;;5084627;28;20105;-65
2021/06/19 01:35:24;;;;;;;85.43;57.92;;;;;;;;;;5100334;28;20162;-65
2021/06/19 01:37:53;;;;;;;293.50;81.75;;;;;;;;;;5091971;28;20038;-65
2021/06/19 01:40:20;;;;;;;158.38;71.28;;;;;;;;;;5102390;28;20028;-65
2021/06/19 01:42:47;;;;;;;236.20;78.63;;;;;;;;;;5085280;28;20062;-65
2021/06/19 01:45:13;;;;;;;319.05;89.88;;;;;;;;;;5105352;28;20071;-65
2021/06/19 01:47:39;;;;;;;99.25;61.95;;;;;;;;;;5098908;28;20039;-65
2021/06/19 01:50:06;;;;;;;204.80;77.07;;;;;;;;;;5098644;28;20035;-65
2021/06/19 01:52:33;;;;;;;202.02;70.90;;;;;;;;;;5090740;28;20043;-65
2021/06/19 01:54:59;;;;;;;62.80;49.05;;;;;;;;;;5094566;28;20042;-65
2021/06/19 01:57:25;;;;;;;200.52;72.65;;;;;;;;;;5095597;28;20525;-65
2021/06/19 02:00:02;;;;;;;326.77;87.70;;;;;;;;;;5091718;28;20040;-65
2021/06/19 02:02:28;;;;;;;193.75;75.80;;;;;;;;;;5073045;28;20048;-65
2021/06/19 02:04:54;;;;;;;196.32;70.95;;;;;;;;;;5090187;28;20058;-65
2021/06/19 02:07:20;;;;;;;222.75;81.22;;;;;;;;;;5096709;28;20047;-65
2021/06/19 02:09:47;;;;;;;278.33;87.85;;;;;;;;;;5091123;28;20050;-65
2021/06/19 02:12:13;;;;;;;164.60;66.38;;;;;;;;;;5102846;28;20040;-65
2021/06/19 02:14:39;;;;;;;119.93;62.50;;;;;;;;;;5092939;28;20063;-65
2021/06/19 02:17:05;;;;;;;68.18;51.30;;;;;;;;;;5100751;28;20403;-65
2021/06/19 02:19:31;;;;;;;221.10;80.18;;;;;;;;;;5095757;28;20044;-65
2021/06/19 02:21:57;;;;;;;113.85;62.35;;;;;;;;;;5099595;28;20040;-65
2021/06/19 02:24:23;;;;;;;96.05;59.20;;;;;;;;;;5092573;28;20075;-65
2021/06/19 02:26:50;;;;;;;72.95;52.60;;;;;;;;;;5106998;28;20480;-65
2021/06/19 02:29:16;;;;;;;72.30;50.08;;;;;;;;;;5097922;28;20372;-65
2021/06/19 02:31:42;;;;;;;187.50;69.72;;;;;;;;;;5095665;28;20032;-65
2021/06/19 02:34:08;;;;;;;76.13;49.72;;;;;;;;;;5092709;28;20066;-65
2021/06/19 02:36:34;;;;;;;121.65;56.72;;;;;;;;;;5092297;28;20078;-65
2021/06/19 02:39:00;;;;;;;121.03;53.88;;;;;;;;;;5097446;28;20036;-65
2021/06/19 02:41:26;;;;;;;78.75;49.30;;;;;;;;;;5090887;28;20043;-65
2021/06/19 02:43:52;;;;;;;79.22;45.35;;;;;;;;;;5106232;28;20063;-65
2021/06/19 02:46:19;;;;;;;97.85;50.08;;;;;;;;;;5091064;28;20209;-65
2021/06/19 02:48:45;;;;;;;82.00;46.83;;;;;;;;;;5093330;28;20044;-65
2021/06/19 02:51:11;;;;;;;90.03;45.70;;;;;;;;;;5088462;28;20364;-65
2021/06/19 02:53:37;;;;;;;61.20;40.42;;;;;;;;;;5107365;28;20189;-65
2021/06/19 02:56:03;;;;;;;75.22;42.13;;;;;;;;;;5094310;28;20095;-65
2021/06/19 02:58:29;;;;;;;46.00;34.65;;;;;;;;;;5097638;28;20078;-65
2021/06/19 03:00:55;;;;;;;38.13;33.40;;;;;;;;;;5100748;28;20051;-65
2021/06/19 03:03:21;;;;;;;47.78;34.72;;;;;;;;;;5104686;28;20384;-65
2021/06/19 03:05:48;;;;;;;42.60;32.72;;;;;;;;;;5093599;28;20510;-65
2021/06/19 03:08:15;;;;;;;46.85;33.92;;;;;;;;;;5093661;28;20036;-65
2021/06/19 03:10:41;;;;;;;70.28;38.00;;;;;;;;;;5091910;28;20082;-65
2021/06/19 03:13:07;;;;;;;43.42;31.63;;;;;;;;;;5090829;28;20051;-65
2021/06/19 03:15:34;;;;;;;44.28;31.20;;;;;;;;;;5098299;28;20062;-65
2021/06/19 03:18:00;;;;;;;36.08;29.38;;;;;;;;;;5089756;28;20044;-65
2021/06/19 03:20:27;;;;;;;50.95;31.85;;;;;;;;;;5110352;28;20475;-65
2021/06/19 03:22:58;;;;;;;46.42;30.80;;;;;;;;;;5094809;28;20453;-65
2021/06/19 03:25:25;;;;;;;35.08;27.80;;;;;;;;;;5098216;28;20115;-65
2021/06/19 03:27:52;;;;;;;58.40;33.15;;;;;;;;;;5097286;28;20078;-65
2021/06/19 03:30:19;;;;;;;29.50;26.58;;;;;;;;;;5097406;28;20071;-65
2021/06/19 03:32:46;;;;;;;51.45;33.15;;;;;;;;;;5090908;28;20479;-65
2021/06/19 03:35:12;;;;;;;45.47;31.48;;;;;;;;;;5096272;28;20518;-65
2021/06/19 03:37:39;;;;;;;37.35;30.60;;;;;;;;;;5089803;28;20449;-65
2021/06/19 03:40:06;;;;;;;64.95;36.85;;;;;;;;;;5096752;28;20128;-64
2021/06/19 03:42:32;;;;;;;67.68;37.72;;;;;;;;;;5093663;28;20677;-64
2021/06/19 03:44:59;;;;;;;67.18;37.88;;;;;;;;;;5109248;28;20423;-64
2021/06/19 03:47:25;;;;;;;47.05;34.05;;;;;;;;;;5098034;28;20040;-65
2021/06/19 03:49:51;;;;;;;50.28;34.40;;;;;;;;;;5106827;28;20043;-64
2021/06/19 03:52:17;;;;;;;51.72;33.70;;;;;;;;;;5107536;28;20032;-64
2021/06/19 03:54:43;;;;;;;35.50;31.05;;;;;;;;;;5088734;28;20405;-65
2021/06/19 03:57:10;;;;;;;34.40;29.23;;;;;;;;;;5096115;28;20079;-64
2021/06/19 03:59:37;;;;;;;49.97;34.08;;;;;;;;;;5092759;28;20067;-65
2021/06/19 04:02:03;;;;;;;47.00;32.88;;;;;;;;;;5094073;28;20072;-65
2021/06/19 04:04:29;;;;;;;55.72;34.35;;;;;;;;;;5102688;28;20040;-65
2021/06/19 04:06:56;;;;;;;62.58;35.55;;;;;;;;;;5096729;28;20075;-65
2021/06/19 04:09:22;;;;;;;51.17;33.38;;;;;;;;;;5091346;28;20438;-65
2021/06/19 04:11:48;;;;;;;52.00;32.63;;;;;;;;;;5095354;28;20055;-65
2021/06/19 04:14:14;;;;;;;40.13;29.15;;;;;;;;;;5091193;28;20132;-65
2021/06/19 04:16:40;;;;;;;45.05;30.60;;;;;;;;;;5096367;28;20510;-65
2021/06/19 04:19:06;;;;;;;61.17;34.67;;;;;;;;;;5092344;28;20119;-65
2021/06/19 04:21:32;;;;;;;54.72;34.35;;;;;;;;;;5092543;28;20071;-64
2021/06/19 04:23:59;;;;;;;54.70;30.90;;;;;;;;;;5091067;28;20044;-65
2021/06/19 04:26:25;;;;;;;32.42;27.80;;;;;;;;;;5097143;28;20040;-65
2021/06/19 04:28:51;;;;;;;39.78;27.40;;;;;;;;;;5107169;28;20474;-65
2021/06/19 04:31:17;;;;;;;52.17;29.67;;;;;;;;;;5091057;28;20498;-65
2021/06/19 04:33:44;;;;;;;50.22;31.20;;;;;;;;;;5095264;28;20043;-65
2021/06/19 04:36:12;;;;;;;50.22;31.55;;;;;;;;;;5096626;28;20032;-65
2021/06/19 04:38:38;;;;;;;45.20;31.00;;;;;;;;;;5093566;28;20477;-65
2021/06/19 04:41:11;;;;;;;44.25;32.30;;;;;;;;;;5102227;28;20093;-65
2021/06/19 04:44:03;;;;;;;34.38;27.80;;;;;;;;;;5098875;28;20518;-65
2021/06/19 04:46:26;;;;;;;29.08;26.02;;;;;;;;;;5090906;28;20399;-65
2021/06/19 04:48:53;;;;;;;32.95;27.15;;;;;;;;;;5092738;28;20081;-65
2021/06/19 04:51:19;;;;;;;35.65;27.98;;;;;;;;;;5095181;28;20097;-65
2021/06/19 04:53:46;;;;;;;32.45;27.23;;;;;;;;;;5093193;28;20051;-65
2021/06/19 04:56:12;;;;;;;36.20;25.90;;;;;;;;;;5090659;28;20036;-65
2021/06/19 04:58:39;;;;;;;38.88;27.50;;;;;;;;;;5092212;28;20056;-65
2021/06/19 05:01:07;;;;;;;41.42;26.23;;;;;;;;;;5090360;28;20040;-65
2021/06/19 05:03:33;;;;;;;28.75;25.65;;;;;;;;;;5095931;28;20048;-65
2021/06/19 05:06:00;;;;;;;29.13;25.90;;;;;;;;;;5089032;28;20036;-65
2021/06/19 05:08:27;;;;;;;31.75;27.88;;;;;;;;;;5092649;28;20048;-65
2021/06/19 05:10:53;;;;;;;47.75;29.55;;;;;;;;;;5092742;28;20044;-65
2021/06/19 05:13:19;;;;;;;32.70;28.30;;;;;;;;;;5104155;28;20043;-65
2021/06/19 05:15:45;;;;;;;31.58;26.27;;;;;;;;;;5088579;28;20052;-65
2021/06/19 05:18:11;;;;;;;29.15;25.92;;;;;;;;;;5106515;28;20047;-65
2021/06/19 05:20:37;;;;;;;32.42;26.48;;;;;;;;;;5097751;28;20115;-65
2021/06/19 05:23:09;;;;;;;42.35;28.00;;;;;;;;;;5090916;28;20490;-65
2021/06/19 05:25:37;;;;;;;44.42;31.55;;;;;;;;;;5091299;28;20111;-65
2021/06/19 05:28:03;;;;;;;36.00;29.00;;;;;;;;;;5088344;28;20050;-65
2021/06/19 05:30:29;;;;;;;29.80;26.70;;;;;;;;;;5095329;28;20040;-65
2021/06/19 05:32:55;;;;;;;29.35;25.95;;;;;;;;;;5092399;28;20048;-65
2021/06/19 05:35:21;;;;;;;33.70;26.80;;;;;;;;;;5092788;28;20044;-65
2021/06/19 05:37:48;;;;;;;28.05;25.08;;;;;;;;;;5099010;28;20066;-65
2021/06/19 05:40:14;;;;;;;30.10;25.42;;;;;;;;;;5103215;28;20356;-65
2021/06/19 05:42:40;;;;;;;26.98;24.08;;;;;;;;;;5089855;28;20484;-65
2021/06/19 05:45:07;;;;;;;33.67;28.48;;;;;;;;;;5094479;28;20031;-65
2021/06/19 05:47:33;;;;;;;29.70;25.83;;;;;;;;;;5090261;28;20407;-65
2021/06/19 05:49:59;;;;;;;34.85;27.17;;;;;;;;;;5095702;28;20031;-65
2021/06/19 05:52:26;;;;;;;38.88;28.98;;;;;;;;;;5086074;28;20047;-66
2021/06/19 05:54:52;;;;;;;32.28;27.98;;;;;;;;;;5096828;28;20507;-65
2021/06/19 05:57:19;;;;;;;34.90;27.80;;;;;;;;;;5094157;28;20032;-65
2021/06/19 05:59:45;;;;;;;31.05;26.50;;;;;;;;;;5091318;28;20044;-65
2021/06/19 06:02:11;;;;;;;29.75;26.50;;;;;;;;;;5092492;28;20051;-65
2021/06/19 06:04:37;;;;;;;36.72;29.52;;;;;;;;;;5089365;28;20097;-65
2021/06/19 06:07:04;;;;;;;31.15;27.77;;;;;;;;;;5094119;28;20046;-65
2021/06/19 06:09:31;;;;;;;30.70;27.10;;;;;;;;;;5087598;28;20047;-65
2021/06/19 06:11:57;;;;;;;33.45;26.85;;;;;;;;;;5098600;28;20483;-65
2021/06/19 06:14:24;;;;;;;28.30;24.25;;;;;;;;;;5095375;28;20055;-65
2021/06/19 06:16:50;;;;;;;27.73;24.67;;;;;;;;;;5103580;28;20043;-65
2021/06/19 06:19:19;;;;;;;25.95;23.27;;;;;;;;;;5097678;28;20074;-66
2021/06/19 06:21:45;;;;;;;27.58;24.67;;;;;;;;;;5104417;28;20122;-65
2021/06/19 06:24:11;;;;;;;26.48;23.33;;;;;;;;;;5094796;28;20040;-65
2021/06/19 06:26:38;;;;;;;31.98;23.40;;;;;;;;;;5091059;28;20032;-65
2021/06/19 06:29:04;;;;;;;27.95;24.42;;;;;;;;;;5089270;28;20032;-66
2021/06/19 06:31:30;;;;;;;28.95;25.77;;;;;;;;;;5093882;28;20368;-66
2021/06/19 06:33:56;;;;;;;35.05;28.70;;;;;;;;;;5089522;28;20048;-66
2021/06/19 06:36:22;;;;;;;25.60;22.65;;;;;;;;;;5104665;28;20437;-66
2021/06/19 06:38:48;;;;;;;25.98;23.10;;;;;;;;;;5105219;28;20036;-65
2021/06/19 06:41:14;;;;;;;30.67;25.25;;;;;;;;;;5092628;28;20035;-66
2021/06/19 06:43:40;;;;;;;27.08;22.80;;;;;;;;;;5105019;28;20445;-66
2021/06/19 06:46:07;;;;;;;25.30;22.48;;;;;;;;;;5081094;28;20043;-66
2021/06/19 06:48:33;;;;;;;29.13;23.73;;;;;;;;;;5099121;28;20406;-66
2021/06/19 06:50:59;;;;;;;29.02;24.33;;;;;;;;;;5094497;28;20042;-66
2021/06/19 06:53:25;;;;;;;27.35;22.88;;;;;;;;;;5096912;28;20091;-66
2021/06/19 06:55:51;;;;;;;27.33;24.35;;;;;;;;;;5100738;28;20173;-66
2021/06/19 06:58:17;;;;;;;30.85;24.67;;;;;;;;;;5106609;28;20511;-66
2021/06/19 07:00:43;;;;;;;32.85;25.27;;;;;;;;;;5099584;28;20040;-66
2021/06/19 07:03:10;;;;;;;26.58;23.70;;;;;;;;;;5106415;28;20403;-66
2021/06/19 07:05:36;;;;;;;34.38;26.30;;;;;;;;;;5101181;28;20374;-66
2021/06/19 07:08:02;;;;;;;27.73;23.10;;;;;;;;;;5102871;28;20039;-66
2021/06/19 07:10:29;;;;;;;32.22;25.00;;;;;;;;;;5101426;28;20047;-66
2021/06/19 07:12:55;;;;;;;35.83;29.85;;;;;;;;;;5096612;28;20044;-66
2021/06/19 07:15:21;;;;;;;34.55;26.67;;;;;;;;;;5095148;28;20103;-66
2021/06/19 07:17:48;;;;;;;35.75;28.55;;;;;;;;;;5096321;28;20082;-66
2021/06/19 07:20:14;;;;;;;30.33;23.30;;;;;;;;;;5099089;28;20120;-66
2021/06/19 07:22:41;;;;;;;30.10;23.98;;;;;;;;;;5102697;28;20043;-66
2021/06/19 07:25:08;;;;;;;28.38;22.10;;;;;;;;;;5107107;28;20131;-66
2021/06/19 07:27:34;;;;;;;26.88;22.63;;;;;;;;;;5096396;28;20031;-67
2021/06/19 07:30:00;;;;;;;64.40;57.92;;;;;;;;;;5099563;28;20444;-65
2021/06/19 07:32:26;;;;;;;79.13;70.30;;;;;;;;;;5092995;28;20051;-67
2021/06/19 07:34:52;;;;;;;24.98;20.88;;;;;;;;;;5101959;28;20035;-66
2021/06/19 07:37:19;;;;;;;27.60;21.13;;;;;;;;;;5093689;28;20127;-67
2021/06/19 07:39:45;;;;;;;24.00;18.98;;;;;;;;;;5101746;28;20036;-67
2021/06/19 07:42:11;;;;;;;23.00;19.98;;;;;;;;;;5097287;28;20040;-67
2021/06/19 07:44:37;;;;;;;25.20;19.17;;;;;;;;;;5106488;28;20070;-67
2021/06/19 07:47:04;;;;;;;24.40;18.45;;;;;;;;;;5087247;28;20044;-68
2021/06/19 07:49:30;;;;;;;21.55;17.75;;;;;;;;;;5098563;28;20480;-68
2021/06/19 07:51:57;;;;;;;27.30;19.40;;;;;;;;;;5091016;28;20135;-68
2021/06/19 07:54:23;;;;;;;24.42;19.00;;;;;;;;;;5093683;28;20119;-68
2021/06/19 07:56:50;;;;;;;25.80;20.23;;;;;;;;;;5100446;28;20111;-66
2021/06/19 07:59:16;;;;;;;27.90;19.95;;;;;;;;;;5093969;28;20387;-68
2021/06/19 08:01:42;;;;;;;27.40;19.77;;;;;;;;;;5098249;28;20046;-68
2021/06/19 08:04:08;;;;;;;25.10;20.10;;;;;;;;;;5084589;28;20046;-67
2021/06/19 08:06:37;;;;;;;25.98;20.30;;;;;;;;;;5104690;28;20039;-68
2021/06/19 08:09:03;;;;;;;24.27;19.73;;;;;;;;;;5091829;28;20577;-68
2021/06/19 08:11:30;;;;;;;24.33;19.75;;;;;;;;;;5099236;28;20495;-67
2021/06/19 08:13:56;;;;;;;25.30;20.90;;;;;;;;;;5098670;28;20555;-69
2021/06/19 08:16:25;;;;;;;22.30;19.02;;;;;;;;;;5104366;28;20043;-68
2021/06/19 08:18:51;;;;;;;27.00;19.98;;;;;;;;;;5079571;28;20032;-67
2021/06/19 08:21:17;;;;;;;28.20;20.75;;;;;;;;;;5087872;28;20046;-68
2021/06/19 08:23:43;;;;;;;26.00;22.23;;;;;;;;;;5100487;28;20379;-69
2021/06/19 08:26:09;;;;;;;25.23;21.23;;;;;;;;;;5099139;28;20036;-67
2021/06/19 08:28:35;;;;;;;26.83;20.98;;;;;;;;;;5091852;28;20047;-68
2021/06/19 08:31:02;;;;;;;26.75;20.88;;;;;;;;;;5093713;28;20089;-67
2021/06/19 08:33:29;;;;;;;27.15;22.30;;;;;;;;;;5090079;28;20071;-67
2021/06/19 08:35:55;;;;;;;24.67;22.15;;;;;;;;;;5096690;28;20067;-67
2021/06/19 08:38:21;;;;;;;28.08;21.90;;;;;;;;;;5096805;28;20043;-68
2021/06/19 08:40:48;;;;;;;26.63;22.45;;;;;;;;;;5087468;28;20074;-68
2021/06/19 08:43:14;;;;;;;28.20;22.15;;;;;;;;;;5095248;28;20499;-68
2021/06/19 08:45:40;;;;;;;22.60;20.15;;;;;;;;;;5091611;28;20127;-68
2021/06/19 08:48:07;;;;;;;22.70;18.88;;;;;;;;;;5094258;28;20104;-68
2021/06/19 08:50:36;;;;;;;21.50;19.23;;;;;;;;;;5088025;28;20040;-68
2021/06/19 08:53:02;;;;;;;21.73;19.60;;;;;;;;;;5097246;28;20044;-69
2021/06/19 08:55:29;;;;;;;19.10;16.85;;;;;;;;;;5092146;28;20441;-68
2021/06/19 08:57:55;;;;;;;16.63;15.05;;;;;;;;;;5101239;28;20054;-68
2021/06/19 09:00:21;;;;;;;17.67;15.88;;;;;;;;;;5094930;28;20028;-68
2021/06/19 09:02:48;;;;;;;18.52;14.60;;;;;;;;;;5094958;28;20042;-68
2021/06/19 09:05:18;;;;;;;18.38;16.58;;;;;;;;;;5089683;28;20044;-68
2021/06/19 09:07:46;;;;;;;18.13;16.33;;;;;;;;;;5107222;28;20140;-68
2021/06/19 09:10:29;;;;;;;17.60;15.82;;;;;;;;;;5089966;28;20036;-68
2021/06/19 09:12:59;;;;;;;19.75;17.55;;;;;;;;;;5095237;28;20059;-68
2021/06/19 09:15:26;;;;;;;21.63;18.45;;;;;;;;;;5090074;28;20055;-68
2021/06/19 09:18:06;;;;;;;21.25;18.95;;;;;;;;;;5090412;28;20047;-67
2021/06/19 09:20:33;;;;;;;20.42;18.33;;;;;;;;;;5089904;28;20040;-67
2021/06/19 09:23:10;;;;;;;22.17;19.23;;;;;;;;;;5099669;28;20430;-67
2021/06/19 09:25:37;;;;;;;20.70;18.20;;;;;;;;;;5089215;28;20035;-67
2021/06/19 09:28:08;;;;;;;19.45;16.98;;;;;;;;;;5097193;28;20476;-67
2021/06/19 09:30:34;;;;;;;22.88;18.35;;;;;;;;;;5092445;28;20044;-67
2021/06/19 09:33:02;;;;;;;19.70;17.48;;;;;;;;;;5092572;28;20074;-67
2021/06/19 09:35:29;;;;;;;22.95;18.25;;;;;;;;;;5094654;28;20074;-67
2021/06/19 09:37:56;;;;;;;20.48;17.05;;;;;;;;;;5085761;28;20154;-67
2021/06/19 09:40:29;;;;;;;19.55;16.75;;;;;;;;;;5106010;28;20031;-67
2021/06/19 09:43:13;;;;;;;21.23;16.90;;;;;;;;;;5093578;28;20055;-66
2021/06/19 09:45:41;;;;;;;18.95;16.55;;;;;;;;;;5105352;28;20035;-66
2021/06/19 09:48:22;;;;;;;20.55;17.73;;;;;;;;;;5084039;28;20043;-66
2021/06/19 09:51:08;;;;;;;22.35;17.98;;;;;;;;;;5095168;28;20161;-66
2021/06/19 09:53:35;;;;;;;18.80;16.65;;;;;;;;;;5090209;28;20055;-66
2021/06/19 09:56:05;;;;;;;20.63;17.13;;;;;;;;;;5094595;28;20039;-65
2021/06/19 09:58:41;;;;;;;18.75;16.75;;;;;;;;;;5087271;28;20070;-66
2021/06/19 10:01:08;;;;;;;18.08;16.20;;;;;;;;;;5093460;28;20047;-66
2021/06/19 10:03:53;;;;;;;18.77;16.88;;;;;;;;;;5094507;28;20071;-66
2021/06/19 10:06:19;;;;;;;18.02;16.08;;;;;;;;;;5102433;28;20044;-66
2021/06/19 10:08:46;;;;;;;18.65;15.35;;;;;;;;;;5087450;28;20042;-66
2021/06/19 10:11:13;;;;;;;15.57;14.15;;;;;;;;;;5090980;28;20054;-66
2021/06/19 10:13:40;;;;;;;16.70;14.95;;;;;;;;;;5088800;28;20036;-66
2021/06/19 10:16:07;;;;;;;16.08;14.50;;;;;;;;;;5095018;28;20047;-66
2021/06/19 10:18:33;;;;;;;15.32;13.82;;;;;;;;;;5084703;28;20126;-66
2021/06/19 10:21:00;;;;;;;16.88;15.07;;;;;;;;;;5094444;28;20476;-66
2021/06/19 10:23:26;;;;;;;16.40;14.70;;;;;;;;;;5087233;28;20040;-66
2021/06/19 10:25:53;;;;;;;14.55;13.25;;;;;;;;;;5094358;28;20031;-66
2021/06/19 10:28:19;;;;;;;15.30;13.85;;;;;;;;;;5087113;28;20453;-66
2021/06/19 10:30:45;;;;;;;13.70;12.52;;;;;;;;;;5099660;28;20043;-66
2021/06/19 10:33:44;;;;;;;13.55;12.25;;;;;;;;;;5096293;28;20127;-66
2021/06/19 10:36:11;;;;;;;13.85;12.45;;;;;;;;;;5065051;28;20044;-66
2021/06/19 10:38:54;;;;;;;11.90;10.73;;;;;;;;;;5085227;28;20047;-66
2021/06/19 10:41:43;;;;;;;12.55;11.00;;;;;;;;;;5093580;28;20067;-66
2021/06/19 10:44:09;;;;;;;11.38;10.27;;;;;;;;;;5092246;28;20509;-66
2021/06/19 10:46:39;;;;;;;12.02;10.75;;;;;;;;;;5094236;28;20267;-66
2021/06/19 10:49:21;;;;;;;11.77;9.32;;;;;;;;;;5087718;28;20043;-66
2021/06/19 10:51:47;;;;;;;9.85;8.82;;;;;;;;;;5107888;28;20044;-66
2021/06/19 10:54:25;;;;;;;9.45;8.45;;;;;;;;;;5091376;28;20036;-66
2021/06/19 10:56:58;;;;;;;9.95;9.05;;;;;;;;;;5104237;28;20176;-66
2021/06/19 10:59:32;;;;;;;12.13;9.95;;;;;;;;;;5099512;28;20036;-67
2021/06/19 11:01:59;;;;;;;11.70;10.70;;;;;;;;;;5105761;28;20052;-66
2021/06/19 11:04:51;;;;;;;18.08;11.93;;;;;;;;;;5089722;28;20465;-66
2021/06/19 11:07:18;;;;;;;13.13;11.82;;;;;;;;;;5095218;28;20040;-66
2021/06/19 11:09:44;;;;;;;12.27;11.18;;;;;;;;;;5087730;28;20040;-67
2021/06/19 11:12:17;;;;;;;12.55;11.55;;;;;;;;;;5094316;28;20488;-66
2021/06/19 11:14:44;;;;;;;12.20;11.20;;;;;;;;;;5089175;28;20064;-65
2021/06/19 11:17:25;;;;;;;12.70;11.57;;;;;;;;;;5094070;28;20395;-66
2021/06/19 11:19:55;;;;;;;13.43;12.32;;;;;;;;;;5098157;28;20108;-66
2021/06/19 11:22:40;;;;;;;13.35;12.23;;;;;;;;;;5090569;28;20073;-66
2021/06/19 11:25:37;;;;;;;11.77;10.65;;;;;;;;;;5088536;28;20111;-66
2021/06/19 11:28:11;;;;;;;12.98;11.35;;;;;;;;;;5097372;28;20035;-66
2021/06/19 11:30:37;;;;;;;14.27;12.93;;;;;;;;;;5091121;28;20042;-65
2021/06/19 11:33:22;;;;;;;13.50;12.25;;;;;;;;;;5105721;28;20040;-66
2021/06/19 11:35:49;;;;;;;13.35;12.20;;;;;;;;;;5095412;28;20051;-66
2021/06/19 11:38:16;;;;;;;13.18;11.35;;;;;;;;;;5097686;28;20093;-66
2021/06/19 11:40:42;;;;;;;12.43;11.32;;;;;;;;;;5094375;28;20545;-65
2021/06/19 11:43:09;;;;;;;12.55;11.40;;;;;;;;;;5102795;28;20067;-66
2021/06/19 11:45:37;;;;;;;12.77;11.70;;;;;;;;;;5110285;28;20047;-66
2021/06/19 11:48:08;;;;;;;13.95;12.52;;;;;;;;;;5095496;28;20136;-66
2021/06/19 11:50:35;;;;;;;13.55;12.35;;;;;;;;;;5098895;28;20039;-66
2021/06/19 11:53:20;;;;;;;12.82;11.68;;;;;;;;;;5089210;28;20507;-66
2021/06/19 11:55:46;;;;;;;13.25;12.05;;;;;;;;;;5102022;28;20123;-66
2021/06/19 11:58:12;;;;;;;13.70;12.43;;;;;;;;;;5095321;28;20036;-66
2021/06/19 12:00:54;;;;;;;13.80;12.70;;;;;;;;;;5099917;28;20439;-66
2021/06/19 12:03:24;;;;;;;14.98;13.65;;;;;;;;;;5101907;28;20156;-66
2021/06/19 12:05:50;;;;;;;15.15;13.93;;;;;;;;;;5094684;28;20503;-66
2021/06/19 12:08:25;;;;;;;15.35;13.98;;;;;;;;;;5093395;28;20047;-66
2021/06/19 12:10:51;;;;;;;14.40;13.18;;;;;;;;;;5097424;28;20063;-66
2021/06/19 12:13:17;;;;;;;13.30;12.00;;;;;;;;;;5089396;28;20051;-66
2021/06/19 12:16:03;;;;;;;13.73;12.43;;;;;;;;;;5098498;28;20055;-66
2021/06/19 12:18:30;;;;;;;13.85;12.40;;;;;;;;;;5092061;28;20032;-66
2021/06/19 12:21:17;;;;;;;12.70;11.60;;;;;;;;;;5101218;28;20047;-66
2021/06/19 12:23:44;;;;;;;12.95;11.80;;;;;;;;;;5091527;28;20446;-66
2021/06/19 12:26:14;;;;;;;14.80;13.40;;;;;;;;;;5110397;28;20040;-65
2021/06/19 12:28:45;;;;;;;13.15;12.05;;;;;;;;;;5100375;28;20067;-66
2021/06/19 12:31:14;;;;;;;15.55;14.13;;;;;;;;;;5103500;28;20502;-65
2021/06/19 12:33:40;;;;;;;14.57;13.38;;;;;;;;;;5088807;28;20066;-65
2021/06/19 12:36:08;;;;;;;14.57;13.13;;;;;;;;;;5094395;28;20475;-65
2021/06/19 12:38:35;;;;;;;14.23;13.05;;;;;;;;;;5094827;28;20531;-66
2021/06/19 12:41:02;;;;;;;14.15;12.85;;;;;;;;;;5096819;28;20036;-66
2021/06/19 12:43:28;;;;;;;14.80;13.55;;;;;;;;;;5102442;28;20051;-65
2021/06/19 12:45:54;;;;;;;15.82;14.52;;;;;;;;;;5103993;28;20060;-66
2021/06/19 12:48:22;;;;;;;14.82;13.52;;;;;;;;;;5094804;28;20071;-66
2021/06/19 12:50:49;;;;;;;14.00;12.77;;;;;;;;;;5104813;28;20054;-66
2021/06/19 12:53:16;;;;;;;13.85;12.80;;;;;;;;;;5092711;28;20047;-66
2021/06/19 12:55:45;;;;;;;16.85;15.35;;;;;;;;;;5092778;28;20097;-66
2021/06/19 12:58:18;;;;;;;16.65;15.35;;;;;;;;;;5104490;28;20040;-66
2021/06/19 13:00:49;;;;;;;17.00;15.60;;;;;;;;;;5092413;28;20035;-66
2021/06/19 13:03:23;;;;;;;16.02;14.77;;;;;;;;;;5099719;28;20496;-66
2021/06/19 13:05:49;;;;;;;16.08;14.82;;;;;;;;;;5101262;28;20247;-66
2021/06/19 13:08:15;;;;;;;16.83;15.20;;;;;;;;;;5102871;28;20109;-66
2021/06/19 13:10:42;;;;;;;16.95;15.45;;;;;;;;;;5090937;28;20070;-66
2021/06/19 13:13:08;;;;;;;17.27;15.90;;;;;;;;;;5110010;28;20509;-66
2021/06/19 13:15:34;;;;;;;17.55;16.08;;;;;;;;;;5090946;28;20349;-66
2021/06/19 13:18:11;;;;;;;15.00;13.80;;;;;;;;;;5094503;28;20042;-66
2021/06/19 13:20:38;;;;;;;14.77;13.50;;;;;;;;;;5091907;28;20036;-66
2021/06/19 13:23:08;;;;;;;15.98;14.70;;;;;;;;;;5095249;28;20036;-65
2021/06/19 13:25:50;;;;;;;16.98;15.65;;;;;;;;;;5092660;28;20048;-65
2021/06/19 13:28:33;;;;;;;18.25;16.75;;;;;;;;;;5103489;28;20044;-65
2021/06/19 13:31:11;;;;;;;17.92;16.52;;;;;;;;;;5090446;28;20040;-65
2021/06/19 13:33:44;;;;;;;16.90;15.60;;;;;;;;;;5106298;28;20652;-65
2021/06/19 13:36:24;;;;;;;17.48;16.00;;;;;;;;;;5093649;28;20036;-65
2021/06/19 13:38:52;;;;;;;17.48;15.85;;;;;;;;;;5096049;28;20164;-65
2021/06/19 13:41:25;;;;;;;16.63;15.30;;;;;;;;;;5088830;28;20042;-65
2021/06/19 13:43:52;;;;;;;15.03;13.70;;;;;;;;;;5091238;28;20036;-65
2021/06/19 13:46:18;;;;;;;16.63;15.20;;;;;;;;;;5096283;28;20557;-65
2021/06/19 13:48:44;;;;;;;17.33;15.82;;;;;;;;;;5100075;28;20036;-65
2021/06/19 13:51:11;;;;;;;16.83;15.52;;;;;;;;;;5087704;28;20032;-65
2021/06/19 13:53:41;;;;;;;16.35;14.82;;;;;;;;;;5092884;28;20040;-66
2021/06/19 13:56:07;;;;;;;15.30;14.10;;;;;;;;;;5090905;28;20143;-65
2021/06/19 13:58:34;;;;;;;16.88;15.35;;;;;;;;;;5094898;28;20032;-65
2021/06/19 14:01:00;;;;;;;17.13;15.65;;;;;;;;;;5088315;28;20395;-65
2021/06/19 14:03:26;;;;;;;16.63;15.32;;;;;;;;;;5090882;28;20051;-65
2021/06/19 14:05:52;;;;;;;110.95;100.68;;;;;;;;;;5094996;28;20052;-65
2021/06/19 14:08:18;;;;;;;18.02;16.33;;;;;;;;;;5096280;28;20035;-65
2021/06/19 14:10:44;;;;;;;16.98;15.38;;;;;;;;;;5106253;28;20044;-65
2021/06/19 14:13:10;;;;;;;28.55;26.02;;;;;;;;;;5089159;28;20048;-65
2021/06/19 14:15:36;;;;;;;25.58;23.42;;;;;;;;;;5095227;28;20514;-65
2021/06/19 14:18:03;;;;;;;20.80;19.02;;;;;;;;;;5086106;28;20687;-65
2021/06/19 14:20:30;;;;;;;17.65;16.13;;;;;;;;;;5093391;28;20058;-65
2021/06/19 14:22:56;;;;;;;16.67;15.18;;;;;;;;;;5096813;28;20043;-65